Time;durP1;ratioP1;P1;durP2;ratioP2;P2;SDS_P1;SDS_P2;PMS_P1;PMS_P2;Temp;Humidity;BMP_temperature;BMP_pressure;BME280_temperature;BME280_humidity;BME280_pressure;Samples;Min_cycle;Max_cycle;Signal;HPM_P1;HPM_P2
2022/08/09 00:00:12;;;;;;;;;;;14.00;99.90;;;;;;5012338;28;20303;-71
2022/08/09 00:02:38;;;;;;;;;;;14.00;99.90;;;;;;5010786;28;20302;-70
2022/08/09 00:05:04;;;;;;;;;;;14.10;99.90;;;;;;5011101;28;20024;-71
2022/08/09 00:07:30;;;;;;;;;;;14.00;99.90;;;;;;5014178;28;20379;-71
2022/08/09 00:09:55;;;;;;;;;;;14.00;99.90;;;;;;5010473;28;19923;-72
2022/08/09 00:12:21;;;;;;;;;;;14.00;99.90;;;;;;5013691;28;19917;-71
2022/08/09 00:14:46;;;;;;;;;;;13.90;99.90;;;;;;5015160;28;19927;-71
2022/08/09 00:17:12;;;;;;;;;;;13.90;99.90;;;;;;5013833;28;19940;-70
2022/08/09 00:19:37;;;;;;;;;;;13.90;99.90;;;;;;5012671;28;19917;-71
2022/08/09 00:22:03;;;;;;;;;;;13.80;99.90;;;;;;5011070;28;19963;-71
2022/08/09 00:24:30;;;;;;;;;;;13.70;99.90;;;;;;5014876;28;20369;-71
2022/08/09 00:26:56;;;;;;;;;;;13.60;99.90;;;;;;5010580;28;19955;-71
2022/08/09 00:29:22;;;;;;;;;;;13.60;99.90;;;;;;5010069;28;21942;-71
2022/08/09 00:31:47;;;;;;;;;;;13.60;99.90;;;;;;5014874;28;20007;-71
2022/08/09 00:34:13;;;;;;;;;;;13.60;99.90;;;;;;5012332;28;19987;-71
2022/08/09 00:36:39;;;;;;;;;;;13.60;99.90;;;;;;5010804;28;19968;-71
2022/08/09 00:39:04;;;;;;;;;;;13.60;99.90;;;;;;5013605;28;20780;-72
2022/08/09 00:41:30;;;;;;;;;;;13.60;99.90;;;;;;5012850;28;20333;-71
2022/08/09 00:43:55;;;;;;;;;;;13.70;99.90;;;;;;5010554;28;20267;-71
2022/08/09 00:46:21;;;;;;;;;;;13.70;99.90;;;;;;5008977;28;20016;-71
2022/08/09 00:48:46;;;;;;;;;;;13.70;99.90;;;;;;5013378;28;19924;-71
2022/08/09 00:51:14;;;;;;;;;;;13.70;99.90;;;;;;5008997;28;19917;-71
2022/08/09 00:53:39;;;;;;;;;;;13.70;99.90;;;;;;4994839;28;19917;-71
2022/08/09 00:56:06;;;;;;;;;;;13.70;99.90;;;;;;5007715;28;20359;-71
2022/08/09 00:58:34;;;;;;;;;;;13.70;99.90;;;;;;5011800;28;19947;-71
2022/08/09 01:01:00;;;;;;;;;;;13.70;99.90;;;;;;5007854;28;19925;-72
2022/08/09 01:03:32;;;;;;;;;;;13.70;99.90;;;;;;5009918;28;19999;-71
2022/08/09 01:06:04;;;;;;;;;;;13.60;99.90;;;;;;5009506;28;19917;-71
2022/08/09 01:08:49;;;;;;;;;;;13.50;99.90;;;;;;5010167;28;19917;-71
2022/08/09 01:11:14;;;;;;;;;;;13.30;99.90;;;;;;4995364;28;19940;-71
2022/08/09 01:13:40;;;;;;;;;;;13.20;99.90;;;;;;5007753;28;19917;-71
2022/08/09 01:16:07;;;;;;;;;;;13.10;99.90;;;;;;5012917;28;19949;-72
2022/08/09 01:18:33;;;;;;;;;;;13.00;99.90;;;;;;4992468;28;19975;-71
2022/08/09 01:21:18;;;;;;;;;;;12.90;99.90;;;;;;5010990;28;20023;-71
2022/08/09 01:23:43;;;;;;;;;;;12.90;99.90;;;;;;5003592;28;19999;-72
2022/08/09 01:26:09;;;;;;;;;;;12.80;99.90;;;;;;5010645;28;20292;-71
2022/08/09 01:28:35;;;;;;;;;;;12.80;99.90;;;;;;5011146;28;20538;-71
2022/08/09 01:31:02;;;;;;;;;;;12.80;99.90;;;;;;5011621;28;20083;-71
2022/08/09 01:33:31;;;;;;;;;;;12.80;99.90;;;;;;5004814;28;19921;-71
2022/08/09 01:36:00;;;;;;;;;;;12.90;99.90;;;;;;5005876;28;20399;-71
2022/08/09 01:38:27;;;;;;;;;;;12.90;99.90;;;;;;5009394;28;20010;-71
2022/08/09 01:40:59;;;;;;;;;;;13.00;99.90;;;;;;5009399;28;20020;-71
2022/08/09 01:43:25;;;;;;;;;;;13.10;99.90;;;;;;5012493;28;19917;-71
2022/08/09 01:45:52;;;;;;;;;;;13.10;99.90;;;;;;5010236;28;20365;-71
2022/08/09 01:48:19;;;;;;;;;;;13.10;99.90;;;;;;5014524;28;20276;-71
2022/08/09 01:50:49;;;;;;;;;;;13.20;99.90;;;;;;5006567;28;19925;-71
2022/08/09 01:53:15;;;;;;;;;;;13.10;99.90;;;;;;5009349;28;19921;-71
2022/08/09 01:55:41;;;;;;;;;;;13.20;99.90;;;;;;5009400;28;19956;-71
2022/08/09 01:58:08;;;;;;;;;;;13.20;99.90;;;;;;5006033;28;20201;-71
2022/08/09 02:00:34;;;;;;;;;;;13.20;99.90;;;;;;5006143;28;19952;-71
2022/08/09 02:03:00;;;;;;;;;;;13.10;99.90;;;;;;5008383;28;19988;-72
2022/08/09 02:05:26;;;;;;;;;;;13.10;99.90;;;;;;5006452;28;19923;-71
2022/08/09 02:07:55;;;;;;;;;;;13.00;99.90;;;;;;5004637;28;20357;-71
2022/08/09 02:10:23;;;;;;;;;;;12.80;99.90;;;;;;5008236;28;20335;-71
2022/08/09 02:12:48;;;;;;;;;;;12.70;99.90;;;;;;5008798;28;19923;-71
2022/08/09 02:15:16;;;;;;;;;;;12.60;99.90;;;;;;4992474;28;19921;-71
2022/08/09 02:17:43;;;;;;;;;;;12.60;99.90;;;;;;5008047;28;19940;-71
2022/08/09 02:20:09;;;;;;;;;;;12.60;99.90;;;;;;5010143;28;20020;-71
2022/08/09 02:22:34;;;;;;;;;;;12.50;99.90;;;;;;5010861;28;19921;-71
2022/08/09 02:25:01;;;;;;;;;;;12.50;99.90;;;;;;5009475;28;19924;-71
2022/08/09 02:27:28;;;;;;;;;;;12.50;99.90;;;;;;5010596;28;19939;-71
2022/08/09 02:29:54;;;;;;;;;;;12.50;99.90;;;;;;5005044;28;19921;-72
2022/08/09 02:32:22;;;;;;;;;;;12.50;99.90;;;;;;5003133;28;20006;-71
2022/08/09 02:34:49;;;;;;;;;;;12.40;99.90;;;;;;5008952;28;19917;-71
2022/08/09 02:37:16;;;;;;;;;;;12.40;99.90;;;;;;5009118;28;20376;-71
2022/08/09 02:39:45;;;;;;;;;;;12.40;99.90;;;;;;5010270;28;19924;-72
2022/08/09 02:42:15;;;;;;;;;;;12.40;99.90;;;;;;5009866;28;19925;-71
2022/08/09 02:44:45;;;;;;;;;;;12.40;99.90;;;;;;5009003;28;20115;-71
2022/08/09 02:47:11;;;;;;;;;;;12.50;99.90;;;;;;5009731;28;19967;-71
2022/08/09 02:49:42;;;;;;;;;;;12.50;99.90;;;;;;5009684;28;19917;-71
2022/08/09 02:52:12;;;;;;;;;;;12.50;99.90;;;;;;5013457;28;19917;-71
2022/08/09 02:54:38;;;;;;;;;;;12.40;99.90;;;;;;4994603;28;20004;-71
2022/08/09 02:57:04;;;;;;;;;;;12.30;99.90;;;;;;5005550;28;20035;-71
2022/08/09 02:59:32;;;;;;;;;;;12.20;99.90;;;;;;5009792;28;19921;-71
2022/08/09 03:01:59;;;;;;;;;;;12.10;99.90;;;;;;5007918;28;19990;-71
2022/08/09 03:04:25;;;;;;;;;;;12.00;99.90;;;;;;5006615;28;19933;-71
2022/08/09 03:06:51;;;;;;;;;;;11.90;99.90;;;;;;4992153;28;20384;-71
2022/08/09 03:09:19;;;;;;;;;;;11.90;99.90;;;;;;5008542;28;19921;-71
2022/08/09 03:11:46;;;;;;;;;;;11.80;99.90;;;;;;5010242;28;20323;-71
2022/08/09 03:14:12;;;;;;;;;;;11.80;99.90;;;;;;5010972;28;19921;-71
2022/08/09 03:16:38;;;;;;;;;;;11.80;99.90;;;;;;5011977;28;19932;-71
2022/08/09 03:19:04;;;;;;;;;;;11.80;99.90;;;;;;5008401;28;20398;-72
2022/08/09 03:21:29;;;;;;;;;;;11.80;99.90;;;;;;5013761;28;19929;-72
2022/08/09 03:23:55;;;;;;;;;;;11.80;99.90;;;;;;5014508;28;20004;-71
2022/08/09 03:26:20;;;;;;;;;;;11.70;99.90;;;;;;5014095;28;20049;-71
2022/08/09 03:28:47;;;;;;;;;;;11.70;99.90;;;;;;4996204;28;20371;-71
2022/08/09 03:31:15;;;;;;;;;;;11.70;99.90;;;;;;4995148;28;19917;-71
2022/08/09 03:33:41;;;;;;;;;;;11.70;99.90;;;;;;5015570;28;21583;-71
2022/08/09 03:36:07;;;;;;;;;;;11.70;99.90;;;;;;5010001;28;19975;-72
2022/08/09 03:38:36;;;;;;;;;;;11.70;99.90;;;;;;5011323;28;19924;-71
2022/08/09 03:41:02;;;;;;;;;;;11.70;99.90;;;;;;5014023;28;20429;-71
2022/08/09 03:43:28;;;;;;;;;;;11.70;99.90;;;;;;5014615;28;19953;-71
2022/08/09 03:45:53;;;;;;;;;;;11.60;99.90;;;;;;5010730;28;19973;-71
2022/08/09 03:48:23;;;;;;;;;;;11.60;99.90;;;;;;5011648;28;19921;-71
2022/08/09 03:50:50;;;;;;;;;;;11.60;99.90;;;;;;5013263;28;21774;-70
2022/08/09 03:53:16;;;;;;;;;;;11.50;99.90;;;;;;5010024;28;19999;-71
2022/08/09 03:55:42;;;;;;;;;;;11.50;99.90;;;;;;5012074;28;19963;-71
2022/08/09 03:58:08;;;;;;;;;;;11.60;99.90;;;;;;5012432;28;20063;-71
2022/08/09 04:00:33;;;;;;;;;;;11.60;99.90;;;;;;5012198;28;20023;-71
2022/08/09 04:02:59;;;;;;;;;;;11.60;99.90;;;;;;5013651;28;20171;-71
2022/08/09 04:05:25;;;;;;;;;;;11.60;99.90;;;;;;5011978;28;20131;-71
2022/08/09 04:07:50;;;;;;;;;;;11.60;99.90;;;;;;5011943;28;20347;-71
2022/08/09 04:10:16;;;;;;;;;;;11.50;99.90;;;;;;5011462;28;20073;-71
2022/08/09 04:12:44;;;;;;;;;;;11.50;99.90;;;;;;5013617;28;20375;-71
2022/08/09 04:15:09;;;;;;;;;;;11.50;99.90;;;;;;5012973;28;20218;-71
2022/08/09 04:17:35;;;;;;;;;;;11.50;99.90;;;;;;4990005;28;19921;-71
2022/08/09 04:20:00;;;;;;;;;;;11.50;99.90;;;;;;5007787;28;19960;-71
2022/08/09 04:22:26;;;;;;;;;;;11.60;99.90;;;;;;5016573;28;19917;-71
2022/08/09 04:24:52;;;;;;;;;;;11.50;99.90;;;;;;5013916;28;20461;-71
2022/08/09 04:27:17;;;;;;;;;;;11.50;99.90;;;;;;5012776;28;20115;-71
2022/08/09 04:29:43;;;;;;;;;;;11.50;99.90;;;;;;5010039;28;19948;-71
2022/08/09 04:32:09;;;;;;;;;;;11.60;99.90;;;;;;5008619;28;20384;-70
2022/08/09 04:34:34;;;;;;;;;;;11.50;99.90;;;;;;5010413;28;19946;-71
2022/08/09 04:37:00;;;;;;;;;;;11.60;99.90;;;;;;5009456;28;19950;-71
2022/08/09 04:39:25;;;;;;;;;;;11.60;99.90;;;;;;5011962;28;20149;-71
2022/08/09 04:41:51;;;;;;;;;;;11.60;99.90;;;;;;5013171;28;19936;-71
2022/08/09 04:44:17;;;;;;;;;;;11.60;99.90;;;;;;5014274;28;20383;-71
2022/08/09 04:46:42;;;;;;;;;;;11.60;99.90;;;;;;5012653;28;19956;-71
2022/08/09 04:49:08;;;;;;;;;;;11.70;99.90;;;;;;5008925;28;19964;-71
2022/08/09 04:51:33;;;;;;;;;;;11.70;99.90;;;;;;5012600;28;19921;-71
2022/08/09 04:53:59;;;;;;;;;;;11.70;99.90;;;;;;5011845;28;20295;-70
2022/08/09 04:56:25;;;;;;;;;;;11.70;99.90;;;;;;4994998;28;20505;-71
2022/08/09 04:58:50;;;;;;;;;;;11.70;99.90;;;;;;5013975;28;19921;-71
2022/08/09 05:01:16;;;;;;;;;;;11.70;99.90;;;;;;4995079;28;20499;-71
2022/08/09 05:03:41;;;;;;;;;;;11.80;99.90;;;;;;5007251;28;19925;-71
2022/08/09 05:06:07;;;;;;;;;;;11.80;99.90;;;;;;5008287;28;20346;-71
2022/08/09 05:08:33;;;;;;;;;;;11.90;99.90;;;;;;4991138;28;20067;-71
2022/08/09 05:10:59;;;;;;;;;;;12.00;99.90;;;;;;5009239;28;20273;-71
2022/08/09 05:13:25;;;;;;;;;;;12.00;99.90;;;;;;5010471;28;19917;-70
2022/08/09 05:15:50;;;;;;;;;;;12.10;99.90;;;;;;5008918;28;19940;-71
2022/08/09 05:18:16;;;;;;;;;;;12.10;99.90;;;;;;5006691;28;19921;-71
2022/08/09 05:20:42;;;;;;;;;;;12.10;99.90;;;;;;5010586;28;19976;-71
2022/08/09 05:23:07;;;;;;;;;;;12.10;99.90;;;;;;5012735;28;19991;-71
2022/08/09 05:25:33;;;;;;;;;;;12.20;99.90;;;;;;5009916;28;20414;-71
2022/08/09 05:27:58;;;;;;;;;;;12.20;99.90;;;;;;5008253;28;20181;-71
2022/08/09 05:30:24;;;;;;;;;;;12.20;99.90;;;;;;5012168;28;20140;-71
2022/08/09 05:32:50;;;;;;;;;;;12.30;99.90;;;;;;5010593;28;20399;-71
2022/08/09 05:35:15;;;;;;;;;;;12.30;99.90;;;;;;5007474;28;20161;-71
2022/08/09 05:37:41;;;;;;;;;;;12.40;99.90;;;;;;5005869;28;19924;-71
2022/08/09 05:40:07;;;;;;;;;;;12.40;99.90;;;;;;5010225;28;20463;-71
2022/08/09 05:42:32;;;;;;;;;;;12.50;99.90;;;;;;5007030;28;19925;-71
2022/08/09 05:44:58;;;;;;;;;;;12.60;99.90;;;;;;5008345;28;20638;-71
2022/08/09 05:47:24;;;;;;;;;;;12.70;99.90;;;;;;5006960;28;19932;-70
2022/08/09 05:49:51;;;;;;;;;;;12.80;99.90;;;;;;5008139;28;19971;-71
2022/08/09 05:52:17;;;;;;;;;;;12.80;99.90;;;;;;5011773;28;19925;-71
2022/08/09 05:54:42;;;;;;;;;;;12.90;99.90;;;;;;5012412;28;19923;-71
2022/08/09 05:57:08;;;;;;;;;;;13.00;99.90;;;;;;5008530;28;19928;-71
2022/08/09 05:59:33;;;;;;;;;;;13.10;99.90;;;;;;5003717;28;21623;-71
2022/08/09 06:01:59;;;;;;;;;;;13.20;99.90;;;;;;5005199;28;20304;-71
2022/08/09 06:04:24;;;;;;;;;;;13.30;99.90;;;;;;5010542;28;20028;-71
2022/08/09 06:06:50;;;;;;;;;;;13.40;99.90;;;;;;5009576;28;19928;-71
2022/08/09 06:09:16;;;;;;;;;;;13.50;99.90;;;;;;4992503;28;19975;-71
2022/08/09 06:11:42;;;;;;;;;;;13.60;99.90;;;;;;5009005;28;20023;-71
2022/08/09 06:14:07;;;;;;;;;;;13.70;99.90;;;;;;5005377;28;20490;-71
2022/08/09 06:16:33;;;;;;;;;;;13.80;99.90;;;;;;5009268;28;20361;-71
2022/08/09 06:18:58;;;;;;;;;;;13.90;99.90;;;;;;5014135;28;20392;-71
2022/08/09 06:21:24;;;;;;;;;;;14.00;99.90;;;;;;5007998;28;19932;-71
2022/08/09 06:23:51;;;;;;;;;;;14.20;99.90;;;;;;5006132;28;19932;-71
2022/08/09 06:26:17;;;;;;;;;;;14.40;99.90;;;;;;5003477;28;19979;-71
2022/08/09 06:28:43;;;;;;;;;;;14.50;99.90;;;;;;5011131;28;19961;-71
2022/08/09 06:31:08;;;;;;;;;;;14.60;99.90;;;;;;5010818;28;20001;-71
2022/08/09 06:33:34;;;;;;;;;;;14.70;99.90;;;;;;4994051;28;19921;-71
2022/08/09 06:35:59;;;;;;;;;;;14.90;99.90;;;;;;5008697;28;19956;-71
2022/08/09 06:38:25;;;;;;;;;;;15.00;99.90;;;;;;5014535;28;19917;-70
2022/08/09 06:40:51;;;;;;;;;;;15.10;99.90;;;;;;5017793;28;19925;-71
2022/08/09 06:43:16;;;;;;;;;;;15.20;99.90;;;;;;5011911;28;20172;-71
2022/08/09 06:45:42;;;;;;;;;;;15.30;99.90;;;;;;5011137;28;20018;-71
2022/08/09 06:48:07;;;;;;;;;;;15.50;99.90;;;;;;5011668;28;19921;-71
2022/08/09 06:50:33;;;;;;;;;;;15.60;99.90;;;;;;4996487;28;20292;-71
2022/08/09 06:53:00;;;;;;;;;;;15.80;99.90;;;;;;4999631;28;20937;-71
2022/08/09 06:55:28;;;;;;;;;;;15.90;99.90;;;;;;5003811;28;19921;-71
2022/08/09 06:57:54;;;;;;;;;;;16.20;99.90;;;;;;5009039;28;19984;-71
2022/08/09 07:00:20;;;;;;;;;;;16.40;99.90;;;;;;5002846;28;20503;-70
2022/08/09 07:02:46;;;;;;;;;;;16.60;99.90;;;;;;4995847;28;20310;-70
2022/08/09 07:05:12;;;;;;;;;;;16.70;99.90;;;;;;4994575;28;19961;-71
2022/08/09 07:07:38;;;;;;;;;;;16.90;99.90;;;;;;5017133;28;20018;-71
2022/08/09 07:10:03;;;;;;;;;;;17.20;99.90;;;;;;4998381;28;20010;-71
2022/08/09 07:12:29;;;;;;;;;;;17.40;99.90;;;;;;5014937;28;19921;-71
2022/08/09 07:14:54;;;;;;;;;;;17.60;99.90;;;;;;5016930;28;19921;-71
2022/08/09 07:17:20;;;;;;;;;;;17.80;99.90;;;;;;5018680;28;19917;-71
2022/08/09 07:19:46;;;;;;;;;;;18.00;99.90;;;;;;5018092;28;19924;-71
2022/08/09 07:22:11;;;;;;;;;;;18.30;99.90;;;;;;5021037;28;19925;-69
2022/08/09 07:24:37;;;;;;;;;;;18.40;99.90;;;;;;5013638;28;20438;-71
2022/08/09 07:27:02;;;;;;;;;;;18.50;99.90;;;;;;4995957;28;20605;-71
2022/08/09 07:29:28;;;;;;;;;;;18.70;99.90;;;;;;5003078;28;20464;-71
2022/08/09 07:31:54;;;;;;;;;;;18.80;99.90;;;;;;4999760;28;20419;-75
2022/08/09 07:34:19;;;;;;;;;;;18.90;99.90;;;;;;5001457;28;19983;-74
2022/08/09 07:36:45;;;;;;;;;;;19.00;99.90;;;;;;5009013;28;20367;-74
2022/08/09 07:39:12;;;;;;;;;;;19.10;99.90;;;;;;5007940;28;19917;-73
2022/08/09 07:41:37;;;;;;;;;;;19.20;99.90;;;;;;5002331;28;20436;-76
2022/08/09 07:44:03;;;;;;;;;;;19.30;99.90;;;;;;5002490;28;20011;-75
2022/08/09 07:46:28;;;;;;;;;;;19.50;99.90;;;;;;5012487;28;20067;-75
2022/08/09 07:48:54;;;;;;;;;;;19.60;99.90;;;;;;5004823;28;20292;-73
2022/08/09 07:51:20;;;;;;;;;;;19.90;99.90;;;;;;5005547;28;19913;-73
2022/08/09 07:53:46;;;;;;;;;;;20.40;99.90;;;;;;5002634;28;20016;-78
2022/08/09 07:56:11;;;;;;;;;;;24.50;99.90;;;;;;5016284;28;19991;-73
2022/08/09 07:58:37;;;;;;;;;;;28.30;99.90;;;;;;5024212;28;19917;-80
2022/08/09 08:01:03;;;;;;;;;;;31.40;93.10;;;;;;5015834;28;19925;-74
2022/08/09 08:03:28;;;;;;;;;;;33.50;79.50;;;;;;5018462;28;19959;-75
2022/08/09 08:05:54;;;;;;;;;;;35.70;66.20;;;;;;4997181;28;20207;-77
2022/08/09 08:08:19;;;;;;;;;;;36.80;56.60;;;;;;5013538;28;19948;-70
2022/08/09 08:10:45;;;;;;;;;;;37.90;50.80;;;;;;5009757;28;19963;-70
2022/08/09 08:13:10;;;;;;;;;;;37.50;49.50;;;;;;5013817;28;19960;-69
2022/08/09 08:15:36;;;;;;;;;;;38.40;46.30;;;;;;5017274;28;20196;-70
2022/08/09 08:18:02;;;;;;;;;;;39.20;45.10;;;;;;5018973;28;19922;-70
2022/08/09 08:20:28;;;;;;;;;;;39.60;43.80;;;;;;5018602;28;20288;-69
2022/08/09 08:22:54;;;;;;;;;;;39.50;41.80;;;;;;5020231;28;19917;-71
2022/08/09 08:25:20;;;;;;;;;;;39.70;39.90;;;;;;5018176;28;20144;-69
2022/08/09 08:27:45;;;;;;;;;;;39.00;39.00;;;;;;5016558;28;20011;-73
2022/08/09 08:30:12;;;;;;;;;;;39.10;38.60;;;;;;4999659;28;19921;-69
2022/08/09 08:32:38;;;;;;;;;;;39.50;38.70;;;;;;4983517;28;20300;-69
2022/08/09 08:35:04;;;;;;;;;;;39.70;38.60;;;;;;5008518;28;20576;-69
2022/08/09 08:37:30;;;;;;;;;;;39.90;37.70;;;;;;4983604;28;20002;-69
2022/08/09 08:39:56;;;;;;;;;;;40.00;36.90;;;;;;5005237;28;20009;-69
2022/08/09 08:42:22;;;;;;;;;;;40.60;35.70;;;;;;4996312;28;19921;-69
2022/08/09 08:44:57;;;;;;;;;;;40.50;38.00;;;;;;5003407;28;19975;-70
2022/08/09 08:47:26;;;;;;;;;;;40.60;36.20;;;;;;5005113;28;19991;-69
2022/08/09 08:49:56;;;;;;;;;;;40.60;35.20;;;;;;5008894;28;19952;-70
2022/08/09 08:52:26;;;;;;;;;;;41.10;34.00;;;;;;5010033;28;19935;-69
2022/08/09 08:54:52;;;;;;;;;;;40.60;33.80;;;;;;5001310;28;19917;-69
2022/08/09 08:57:18;;;;;;;;;;;39.20;33.40;;;;;;5004191;28;19926;-70
2022/08/09 08:59:44;;;;;;;;;;;39.60;33.80;;;;;;5021853;28;19917;-69
2022/08/09 09:02:16;;;;;;;;;;;39.80;31.70;;;;;;5013310;28;20362;-70
2022/08/09 09:04:42;;;;;;;;;;;39.70;32.80;;;;;;5014549;28;20004;-69
2022/08/09 09:07:09;;;;;;;;;;;39.60;31.80;;;;;;5013715;28;20006;-69
2022/08/09 09:09:36;;;;;;;;;;;39.10;32.70;;;;;;5013807;28;20347;-70
2022/08/09 09:12:02;;;;;;;;;;;38.50;34.30;;;;;;5015909;28;20412;-69
2022/08/09 09:14:29;;;;;;;;;;;38.10;33.50;;;;;;5016490;28;19979;-69
2022/08/09 09:16:55;;;;;;;;;;;37.70;36.80;;;;;;5017241;28;19917;-69
2022/08/09 09:19:21;;;;;;;;;;;37.20;36.50;;;;;;5036736;28;19912;-69
2022/08/09 09:22:04;;;;;;;;;;;37.60;35.20;;;;;;5018928;28;19928;-70
2022/08/09 09:24:31;;;;;;;;;;;37.60;33.90;;;;;;5013972;28;19917;-69
2022/08/09 09:26:58;;;;;;;;;;;37.30;35.30;;;;;;5007770;28;20738;-69
2022/08/09 09:29:28;;;;;;;;;;;37.00;35.70;;;;;;5012201;28;19968;-69
2022/08/09 09:31:53;;;;;;;;;;;37.10;37.50;;;;;;5016630;28;19917;-70
2022/08/09 09:34:19;;;;;;;;;;;36.80;35.90;;;;;;5016407;28;19924;-69
2022/08/09 09:36:44;;;;;;;;;;;37.00;36.10;;;;;;4998487;28;19917;-69
2022/08/09 09:39:10;;;;;;;;;;;37.00;38.70;;;;;;5014600;28;19926;-69
2022/08/09 09:41:35;;;;;;;;;;;37.30;36.20;;;;;;5007102;28;19925;-70
2022/08/09 09:44:03;;;;;;;;;;;37.60;37.10;;;;;;5011015;28;19916;-69
2022/08/09 09:46:39;;;;;;;;;;;37.40;35.20;;;;;;5011461;28;19985;-70
2022/08/09 09:49:06;;;;;;;;;;;36.80;36.10;;;;;;4995625;28;19913;-70
2022/08/09 09:51:32;;;;;;;;;;;36.90;39.20;;;;;;5000670;28;19917;-69
2022/08/09 09:54:21;;;;;;;;;;;36.50;38.30;;;;;;5013815;28;20478;-69
2022/08/09 09:56:48;;;;;;;;;;;36.80;38.10;;;;;;4998450;28;20358;-70
2022/08/09 09:59:18;;;;;;;;;;;37.10;35.90;;;;;;4998822;28;19914;-69
2022/08/09 10:01:45;;;;;;;;;;;36.70;36.10;;;;;;5008801;28;19921;-70
2022/08/09 10:04:13;;;;;;;;;;;36.40;38.90;;;;;;5015592;28;20346;-69
2022/08/09 10:06:40;;;;;;;;;;;37.10;38.80;;;;;;4999716;28;19960;-70
2022/08/09 10:09:07;;;;;;;;;;;37.40;36.50;;;;;;5017961;28;19913;-70
2022/08/09 10:11:34;;;;;;;;;;;37.00;35.90;;;;;;5018257;28;20008;-70
2022/08/09 10:14:00;;;;;;;;;;;36.60;39.20;;;;;;4996249;28;20012;-71
2022/08/09 10:16:30;;;;;;;;;;;36.10;37.50;;;;;;5016341;28;20003;-71
2022/08/09 10:18:57;;;;;;;;;;;36.30;37.90;;;;;;5015686;28;19917;-71
2022/08/09 10:21:23;;;;;;;;;;;36.80;37.80;;;;;;5013716;28;19980;-70
2022/08/09 10:23:49;;;;;;;;;;;37.10;38.70;;;;;;5013566;28;19979;-71
2022/08/09 10:26:14;;;;;;;;;;;37.00;36.80;;;;;;5011658;28;19917;-71
2022/08/09 10:28:40;;;;;;;;;;;36.00;37.00;;;;;;5013271;28;19916;-71
2022/08/09 10:31:11;;;;;;;;;;;36.40;38.70;;;;;;5016540;28;19967;-71
2022/08/09 10:33:36;;;;;;;;;;;37.10;42.00;;;;;;5008181;28;19968;-71
2022/08/09 10:36:03;;;;;;;;;;;37.30;37.20;;;;;;5004125;28;20023;-71
2022/08/09 10:38:29;;;;;;;;;;;37.20;36.60;;;;;;5004348;28;19918;-71
2022/08/09 10:40:54;;;;;;;;;;;37.10;37.50;;;;;;5006978;28;19929;-72
2022/08/09 10:43:20;;;;;;;;;;;36.80;36.80;;;;;;5008938;28;20000;-71
2022/08/09 10:45:46;;;;;;;;;;;36.50;36.90;;;;;;5010772;28;20112;-71
2022/08/09 10:48:16;;;;;;;;;;;36.30;38.00;;;;;;5011581;28;19939;-72
2022/08/09 10:53:40;;;;;;;;;;;35.80;37.80;;;;;;4998472;28;20386;-72
2022/08/09 10:56:16;;;;;;;;;;;36.00;38.70;;;;;;4991881;28;20432;-71
2022/08/09 10:58:42;;;;;;;;;;;36.00;39.40;;;;;;5014823;28;19917;-69
2022/08/09 11:01:26;;;;;;;;;;;35.90;36.90;;;;;;5015407;28;19925;-71
2022/08/09 11:04:07;;;;;;;;;;;36.00;40.20;;;;;;5016839;28;19921;-72
2022/08/09 11:06:34;;;;;;;;;;;35.80;37.10;;;;;;5016297;28;19925;-71
2022/08/09 11:09:00;;;;;;;;;;;35.90;37.50;;;;;;5007027;28;19928;-71
2022/08/09 11:11:46;;;;;;;;;;;35.70;36.80;;;;;;5017569;28;19917;-72
2022/08/09 11:14:34;;;;;;;;;;;35.90;39.00;;;;;;5007681;28;19924;-72
2022/08/09 11:17:00;;;;;;;;;;;35.80;40.10;;;;;;5008985;28;20204;-72
2022/08/09 11:19:44;;;;;;;;;;;35.60;37.30;;;;;;5012603;28;19972;-71
2022/08/09 11:22:09;;;;;;;;;;;35.10;36.60;;;;;;5005115;28;19925;-71
2022/08/09 11:24:54;;;;;;;;;;;34.80;37.30;;;;;;5003709;28;19988;-72
2022/08/09 11:27:29;;;;;;;;;;;35.40;37.40;;;;;;5014624;28;20302;-71
2022/08/09 11:29:56;;;;;;;;;;;35.30;38.20;;;;;;5014302;28;19917;-71
2022/08/09 11:32:40;;;;;;;;;;;35.30;37.70;;;;;;5011672;28;19948;-72
2022/08/09 11:35:17;;;;;;;;;;;35.10;36.80;;;;;;5013921;28;19917;-71
2022/08/09 11:37:43;;;;;;;;;;;34.60;39.00;;;;;;5015280;28;20498;-72
2022/08/09 11:40:15;;;;;;;;;;;34.20;40.60;;;;;;5015693;28;19975;-72
2022/08/09 11:42:42;;;;;;;;;;;33.50;39.30;;;;;;4996137;28;19913;-72
2022/08/09 11:45:41;;;;;;;;;;;33.00;41.70;;;;;;5005277;28;19921;-71
2022/08/09 11:48:23;;;;;;;;;;;32.80;40.10;;;;;;5003891;28;19921;-72
2022/08/09 11:50:58;;;;;;;;;;;32.30;44.60;;;;;;5016755;28;20006;-72
2022/08/09 11:53:24;;;;;;;;;;;32.10;43.40;;;;;;5009705;28;20275;-73
2022/08/09 11:55:51;;;;;;;;;;;31.70;41.50;;;;;;5010948;28;19932;-74
2022/08/09 11:58:16;;;;;;;;;;;31.70;42.70;;;;;;5017194;28;19917;-74
2022/08/09 12:00:52;;;;;;;;;;;31.60;42.40;;;;;;5015139;28;19929;-76
2022/08/09 12:03:20;;;;;;;;;;;31.40;43.70;;;;;;5019123;28;19932;-75
2022/08/09 12:05:46;;;;;;;;;;;31.10;44.60;;;;;;5010816;28;19959;-72
2022/08/09 12:08:12;;;;;;;;;;;30.80;43.90;;;;;;5013823;28;19916;-73
2022/08/09 12:10:49;;;;;;;;;;;30.90;46.40;;;;;;5001693;28;20400;-73
2022/08/09 12:13:37;;;;;;;;;;;30.90;43.80;;;;;;4982770;28;20046;-72
2022/08/09 12:16:03;;;;;;;;;;;31.00;41.80;;;;;;4999107;28;19928;-73
2022/08/09 12:18:29;;;;;;;;;;;31.10;41.90;;;;;;4997857;28;19917;-73
2022/08/09 12:20:55;;;;;;;;;;;31.30;41.60;;;;;;5004001;28;20378;-73
2022/08/09 12:23:20;;;;;;;;;;;31.10;41.40;;;;;;4998949;28;19917;-73
2022/08/09 12:25:47;;;;;;;;;;;30.80;42.80;;;;;;5000311;28;20319;-73
2022/08/09 12:28:22;;;;;;;;;;;31.00;40.60;;;;;;5012084;28;20308;-72
2022/08/09 12:30:48;;;;;;;;;;;31.00;42.70;;;;;;4999669;28;20753;-73
2022/08/09 12:33:14;;;;;;;;;;;31.20;43.90;;;;;;5003024;28;19960;-73
2022/08/09 12:35:40;;;;;;;;;;;31.10;43.80;;;;;;5003874;28;19983;-72
2022/08/09 12:38:15;;;;;;;;;;;31.20;41.90;;;;;;5007195;28;19928;-73
2022/08/09 12:40:45;;;;;;;;;;;31.00;41.90;;;;;;4998318;28;19925;-72
2022/08/09 12:43:12;;;;;;;;;;;30.60;44.10;;;;;;4992717;28;19928;-72
2022/08/09 12:45:37;;;;;;;;;;;30.70;43.20;;;;;;4996764;28;20379;-73
2022/08/09 12:48:04;;;;;;;;;;;31.00;45.30;;;;;;4995971;28;19924;-73
2022/08/09 12:50:30;;;;;;;;;;;31.20;43.20;;;;;;5011302;28;19921;-73
2022/08/09 12:52:55;;;;;;;;;;;31.20;43.10;;;;;;5008701;28;20264;-73
2022/08/09 12:55:28;;;;;;;;;;;31.00;43.00;;;;;;4996279;28;20172;-73
2022/08/09 12:57:53;;;;;;;;;;;31.20;43.20;;;;;;5001892;28;20448;-73
2022/08/09 13:00:23;;;;;;;;;;;31.00;42.20;;;;;;5000273;28;20182;-72
2022/08/09 13:02:53;;;;;;;;;;;30.90;43.40;;;;;;5012440;28;20078;-73
2022/08/09 13:05:19;;;;;;;;;;;30.90;41.90;;;;;;5009618;28;19963;-74
2022/08/09 13:08:03;;;;;;;;;;;30.90;43.90;;;;;;5007892;28;19921;-74
2022/08/09 13:10:29;;;;;;;;;;;30.80;42.00;;;;;;5005236;28;20423;-73
2022/08/09 13:12:54;;;;;;;;;;;30.60;42.80;;;;;;5005508;28;19917;-74
2022/08/09 13:15:20;;;;;;;;;;;30.90;43.80;;;;;;5009066;28;20372;-73
2022/08/09 13:17:45;;;;;;;;;;;31.00;42.40;;;;;;5005642;28;19999;-74
2022/08/09 13:20:11;;;;;;;;;;;30.80;42.40;;;;;;5013882;28;19963;-73
2022/08/09 13:22:46;;;;;;;;;;;30.70;40.70;;;;;;5018676;28;20264;-74
2022/08/09 13:25:12;;;;;;;;;;;30.50;41.40;;;;;;5015468;28;19921;-73
2022/08/09 13:27:38;;;;;;;;;;;30.20;42.90;;;;;;5026000;28;19959;-74
2022/08/09 13:30:07;;;;;;;;;;;30.10;45.50;;;;;;5016791;28;19995;-73
2022/08/09 13:32:50;;;;;;;;;;;30.30;42.80;;;;;;5016503;28;19913;-73
2022/08/09 13:35:17;;;;;;;;;;;30.40;42.50;;;;;;5011346;28;20455;-73
2022/08/09 13:37:43;;;;;;;;;;;30.10;43.50;;;;;;5016780;28;19923;-73
2022/08/09 13:40:10;;;;;;;;;;;30.10;43.90;;;;;;4667744;28;9999664;-73
2022/08/09 13:42:36;;;;;;;;;;;30.00;43.30;;;;;;5015561;28;19925;-74
2022/08/09 13:45:02;;;;;;;;;;;30.00;44.60;;;;;;5010562;28;19917;-73
2022/08/09 13:47:27;;;;;;;;;;;30.00;45.10;;;;;;5008093;28;19946;-72
2022/08/09 13:49:53;;;;;;;;;;;30.10;45.50;;;;;;4999202;28;19941;-72
2022/08/09 13:52:19;;;;;;;;;;;30.00;43.10;;;;;;5021527;28;19912;-72
2022/08/09 13:54:44;;;;;;;;;;;30.10;44.40;;;;;;5015158;28;19917;-72
2022/08/09 13:57:10;;;;;;;;;;;30.00;43.30;;;;;;4997630;28;19959;-73
2022/08/09 13:59:35;;;;;;;;;;;29.90;43.40;;;;;;5017720;28;20036;-72
2022/08/09 14:02:01;;;;;;;;;;;29.80;43.50;;;;;;5031623;28;20434;-73
2022/08/09 14:04:27;;;;;;;;;;;29.80;44.20;;;;;;5021520;28;19932;-73
2022/08/09 14:06:57;;;;;;;;;;;29.70;45.10;;;;;;5015190;28;20079;-73
2022/08/09 14:09:22;;;;;;;;;;;29.80;42.70;;;;;;5014720;28;19939;-73
2022/08/09 14:11:49;;;;;;;;;;;29.80;43.60;;;;;;5002969;28;19917;-72
2022/08/09 14:14:15;;;;;;;;;;;29.60;44.40;;;;;;5027163;28;20311;-72
2022/08/09 14:16:41;;;;;;;;;;;29.40;42.50;;;;;;5013236;28;19914;-73
2022/08/09 14:19:06;;;;;;;;;;;29.30;42.80;;;;;;5016070;28;19965;-73